Deer Creek, Indiana
Current Conditions -  °F | °C
As of 5:50 AM on Friday 19 Dec 2014 (Local Time) from KGGP Reporting Station
Overcast Overcast  
Wind Chill: 27°   Ceiling: 2200
Heat Index: 27°   Visibility: 10mi
Dew Point: 19°   Wind: 3mph
Humidity: 74%   Direction: 270°W
Pressure: 30.27"   Gusts: NA
Location:  40.5923°N, 86.4903°W
Report Text: KGGP 191050Z AUTO 27003KT 10SM BKN022 OVC030 M03/M07 A3027 RMK AO2
Loading
Personal Weather Stations






























Interactive Weather Map New forecast layout! Learn more

10-Day Weather Forecast

Advertisements
Track Severe Weather on mobile